createdAt,value
2018-12-26T00:00:47.374Z,6.10
2018-12-26T00:01:52.692Z,6.10
2018-12-26T00:02:57.263Z,6.10
2018-12-26T00:04:01.814Z,6.10
2018-12-26T00:05:06.409Z,6.10
2018-12-26T00:06:11.043Z,6.10
2018-12-26T00:07:15.774Z,6.10
2018-12-26T00:08:20.363Z,6.10
2018-12-26T00:09:24.929Z,6.10
2018-12-26T00:10:29.513Z,6.10
2018-12-26T00:11:34.080Z,6.10
2018-12-26T00:12:38.673Z,6.10
2018-12-26T00:13:43.219Z,6.10
2018-12-26T00:14:47.867Z,6.10
2018-12-26T00:15:52.460Z,6.10
2018-12-26T00:16:57.019Z,6.20
2018-12-26T00:18:01.587Z,6.20
2018-12-26T00:19:06.111Z,6.20
2018-12-26T00:20:10.687Z,6.20
2018-12-26T00:21:15.317Z,6.20
2018-12-26T00:22:19.874Z,6.20
2018-12-26T00:23:24.428Z,6.20
2018-12-26T00:24:28.956Z,6.10
2018-12-26T00:25:33.655Z,6.10
2018-12-26T00:26:38.303Z,6.10
2018-12-26T00:27:42.865Z,6.20
2018-12-26T00:28:47.410Z,6.20
2018-12-26T00:29:52.023Z,6.20
2018-12-26T00:30:56.582Z,6.20
2018-12-26T00:32:01.111Z,6.20
2018-12-26T00:33:05.744Z,6.20
2018-12-26T00:34:10.380Z,6.20
2018-12-26T00:35:14.954Z,6.20
2018-12-26T00:36:19.594Z,6.20
2018-12-26T00:37:24.170Z,6.20
2018-12-26T00:38:28.724Z,6.20
2018-12-26T00:39:33.358Z,6.20
2018-12-26T00:40:37.992Z,6.30
2018-12-26T00:41:42.619Z,6.30
2018-12-26T00:42:47.172Z,6.20
2018-12-26T00:43:51.757Z,6.20
2018-12-26T00:44:56.462Z,6.20
2018-12-26T00:46:01.110Z,6.20
2018-12-26T00:47:05.650Z,6.20
2018-12-26T00:48:10.212Z,6.20
2018-12-26T00:49:14.759Z,6.20
2018-12-26T00:50:19.322Z,6.20
2018-12-26T00:51:23.963Z,6.30
2018-12-26T00:52:28.523Z,6.30
2018-12-26T00:53:33.067Z,6.30
2018-12-26T00:54:37.632Z,6.30
2018-12-26T00:55:42.203Z,6.30
2018-12-26T00:56:46.749Z,6.30
2018-12-26T00:57:51.359Z,6.30
2018-12-26T00:58:56.004Z,6.30
2018-12-26T01:00:00.559Z,6.30
2018-12-26T01:01:05.199Z,6.30
2018-12-26T01:02:09.799Z,6.30
2018-12-26T01:03:14.379Z,6.30
2018-12-26T01:04:18.950Z,6.30
2018-12-26T01:05:23.549Z,6.30
2018-12-26T01:06:28.190Z,6.30
2018-12-26T01:07:32.742Z,6.30
2018-12-26T01:08:37.335Z,6.30
2018-12-26T01:09:41.939Z,6.30
2018-12-26T01:10:46.530Z,6.30
2018-12-26T01:11:51.143Z,6.30
2018-12-26T01:12:55.754Z,6.30
2018-12-26T01:14:00.315Z,6.30
2018-12-26T01:15:05.031Z,6.30
2018-12-26T01:16:09.605Z,6.30
2018-12-26T01:17:14.158Z,6.30
2018-12-26T01:18:18.790Z,6.30
2018-12-26T01:19:23.374Z,6.30
2018-12-26T01:20:27.935Z,6.30
2018-12-26T01:21:32.458Z,6.30
2018-12-26T01:22:37.004Z,6.30
2018-12-26T01:23:41.632Z,6.40
2018-12-26T01:24:46.186Z,6.40
2018-12-26T01:25:50.896Z,6.30
2018-12-26T01:26:55.478Z,6.30
2018-12-26T01:28:00.998Z,6.30
2018-12-26T01:29:05.545Z,6.30
2018-12-26T01:30:10.207Z,6.30
2018-12-26T01:31:14.774Z,6.30
2018-12-26T01:32:19.566Z,6.30
2018-12-26T01:33:24.135Z,6.30
2018-12-26T01:34:30.032Z,6.30
2018-12-26T01:35:34.616Z,6.30
2018-12-26T01:36:39.273Z,6.30
2018-12-26T01:37:43.918Z,6.30
2018-12-26T01:38:48.464Z,6.30
2018-12-26T01:39:53.022Z,6.30
2018-12-26T01:40:57.589Z,6.30
2018-12-26T01:42:02.165Z,6.30
2018-12-26T01:43:06.742Z,6.30
2018-12-26T01:44:11.316Z,6.30
2018-12-26T01:45:15.903Z,6.30
2018-12-26T01:46:20.512Z,6.30
2018-12-26T01:47:25.058Z,6.30
2018-12-26T01:48:29.611Z,6.30
2018-12-26T01:49:34.158Z,6.30
2018-12-26T01:50:38.739Z,6.30
2018-12-26T01:51:43.382Z,6.30
2018-12-26T01:52:47.955Z,6.30
2018-12-26T01:53:52.482Z,6.30
2018-12-26T01:54:57.080Z,6.30
2018-12-26T01:56:01.699Z,6.30
2018-12-26T01:57:06.306Z,6.30
2018-12-26T01:58:10.899Z,6.30
2018-12-26T01:59:15.572Z,6.30
2018-12-26T02:00:20.103Z,6.30
2018-12-26T02:01:24.686Z,6.30
2018-12-26T02:02:29.296Z,6.30
2018-12-26T02:03:33.814Z,6.30
2018-12-26T02:04:38.335Z,6.30
2018-12-26T02:05:42.865Z,6.30
2018-12-26T02:06:47.539Z,6.30
2018-12-26T02:07:52.083Z,6.30
2018-12-26T02:08:56.745Z,6.30
2018-12-26T02:10:01.314Z,6.30
2018-12-26T02:11:06.026Z,6.30
2018-12-26T02:12:10.587Z,6.30
2018-12-26T02:13:15.116Z,6.30
2018-12-26T02:14:19.696Z,6.30
2018-12-26T02:15:24.318Z,6.30
2018-12-26T02:16:28.982Z,6.30
2018-12-26T02:17:33.605Z,6.30
2018-12-26T02:18:38.207Z,6.30
2018-12-26T02:19:42.980Z,6.30
2018-12-26T02:20:47.591Z,6.30
2018-12-26T02:21:52.155Z,6.30
2018-12-26T02:22:56.726Z,6.30
2018-12-26T02:24:01.311Z,6.30
2018-12-26T02:25:06.247Z,6.30
2018-12-26T02:26:11.776Z,6.30
2018-12-26T02:27:16.334Z,6.30
2018-12-26T02:28:20.948Z,6.30
2018-12-26T02:29:25.615Z,6.30
2018-12-26T02:30:30.176Z,6.30
2018-12-26T02:31:34.783Z,6.30
2018-12-26T02:32:39.352Z,6.30
2018-12-26T02:33:43.910Z,6.30
2018-12-26T02:34:48.489Z,6.30
2018-12-26T02:35:53.015Z,6.30
2018-12-26T02:36:57.564Z,6.30
2018-12-26T02:38:02.096Z,6.20
2018-12-26T02:39:07.471Z,6.20
2018-12-26T02:40:12.019Z,6.20
2018-12-26T02:41:16.678Z,6.20
2018-12-26T02:42:21.306Z,6.20
2018-12-26T02:43:25.877Z,6.20
2018-12-26T02:44:30.482Z,6.20
2018-12-26T02:45:35.083Z,6.20
2018-12-26T02:46:39.655Z,6.20
2018-12-26T02:47:44.200Z,6.20
2018-12-26T02:48:48.857Z,6.20
2018-12-26T02:49:53.447Z,6.20
2018-12-26T02:50:58.168Z,6.20
2018-12-26T02:52:02.725Z,6.10
2018-12-26T02:53:07.264Z,6.20
2018-12-26T02:54:11.808Z,6.20
2018-12-26T02:55:16.349Z,6.20
2018-12-26T02:56:20.910Z,6.20
2018-12-26T02:57:25.488Z,6.20
2018-12-26T02:58:30.026Z,6.20
2018-12-26T02:59:34.586Z,6.20
2018-12-26T03:00:39.316Z,6.20
2018-12-26T03:01:43.843Z,6.20
2018-12-26T03:02:48.394Z,6.20
2018-12-26T03:03:52.926Z,6.20
2018-12-26T03:04:57.484Z,6.20
2018-12-26T03:06:02.015Z,6.20
2018-12-26T03:07:06.567Z,6.10
2018-12-26T03:08:12.076Z,6.10
2018-12-26T03:09:16.675Z,6.10
2018-12-26T03:10:21.404Z,6.10
2018-12-26T03:11:26.034Z,6.10
2018-12-26T03:12:30.623Z,6.10
2018-12-26T03:13:35.254Z,6.10
2018-12-26T03:14:39.893Z,6.10
2018-12-26T03:15:44.590Z,6.10
2018-12-26T03:16:49.163Z,6.10
2018-12-26T03:17:53.780Z,6.10
2018-12-26T03:18:58.361Z,6.10
2018-12-26T03:20:03.018Z,6.10
2018-12-26T03:21:07.607Z,6.10
2018-12-26T03:22:12.167Z,6.10
2018-12-26T03:23:16.729Z,6.10
2018-12-26T03:24:21.280Z,6.10
2018-12-26T03:25:25.866Z,6.10
2018-12-26T03:26:30.447Z,6.10
2018-12-26T03:27:34.987Z,6.00
2018-12-26T03:28:39.536Z,6.10
2018-12-26T03:29:44.123Z,6.10
2018-12-26T03:30:48.689Z,6.10
2018-12-26T03:31:53.368Z,6.00
2018-12-26T03:32:57.907Z,6.10
2018-12-26T03:34:02.463Z,6.00
2018-12-26T03:35:07.198Z,6.10
2018-12-26T03:36:11.770Z,6.10
2018-12-26T03:37:16.327Z,6.10
2018-12-26T03:38:21.150Z,6.10
2018-12-26T03:39:25.776Z,6.10
2018-12-26T03:40:31.302Z,6.10
2018-12-26T03:41:36.229Z,6.10
2018-12-26T03:42:41.039Z,6.10
2018-12-26T03:43:45.686Z,6.10
2018-12-26T03:44:51.064Z,6.10
2018-12-26T03:45:56.570Z,6.10
2018-12-26T03:47:01.690Z,6.10
2018-12-26T03:48:06.370Z,6.10
2018-12-26T03:49:11.023Z,6.10
2018-12-26T03:50:15.762Z,6.00
2018-12-26T03:51:20.394Z,6.10
2018-12-26T03:52:25.106Z,6.10
2018-12-26T03:53:29.721Z,6.00
2018-12-26T03:54:34.306Z,6.00
2018-12-26T03:55:38.862Z,6.10
2018-12-26T03:56:43.474Z,6.10
2018-12-26T03:57:48.108Z,6.10
2018-12-26T03:58:52.922Z,6.10
2018-12-26T03:59:57.616Z,6.10
2018-12-26T04:01:02.171Z,6.10
2018-12-26T04:02:06.812Z,6.00
2018-12-26T04:03:11.427Z,6.00
2018-12-26T04:04:16.078Z,6.10
2018-12-26T04:05:20.678Z,6.10
2018-12-26T04:06:25.288Z,6.10
2018-12-26T04:07:29.955Z,6.10
2018-12-26T04:08:34.579Z,6.10
2018-12-26T04:09:39.293Z,6.10
2018-12-26T04:10:43.980Z,6.10
2018-12-26T04:11:48.527Z,6.10
2018-12-26T04:12:53.617Z,6.10
2018-12-26T04:13:59.287Z,6.10
2018-12-26T04:15:03.968Z,6.10
2018-12-26T04:16:08.581Z,6.10
2018-12-26T04:17:13.235Z,6.10
2018-12-26T04:18:17.934Z,6.10
2018-12-26T04:19:22.558Z,6.20
2018-12-26T04:20:27.195Z,6.10
2018-12-26T04:21:31.797Z,6.10
2018-12-26T04:22:36.494Z,6.10
2018-12-26T04:23:41.055Z,6.10
2018-12-26T04:24:47.463Z,6.10
2018-12-26T04:25:52.188Z,6.10
2018-12-26T04:26:56.736Z,6.10
2018-12-26T04:28:01.292Z,6.10
2018-12-26T04:29:05.934Z,6.10
2018-12-26T04:30:11.519Z,6.10
2018-12-26T04:31:16.080Z,6.10
2018-12-26T04:32:20.711Z,6.10
2018-12-26T04:33:25.313Z,6.10
2018-12-26T04:34:29.861Z,6.10
2018-12-26T04:35:34.439Z,6.10
2018-12-26T04:36:38.991Z,6.10
2018-12-26T04:37:43.531Z,6.10
2018-12-26T04:38:48.148Z,6.10
2018-12-26T04:39:52.708Z,6.10
2018-12-26T04:40:57.264Z,6.10
2018-12-26T04:42:01.934Z,6.10
2018-12-26T04:43:06.504Z,6.10
2018-12-26T04:44:11.104Z,6.10
2018-12-26T04:45:15.718Z,6.10
2018-12-26T04:46:20.271Z,6.10
2018-12-26T04:47:24.846Z,6.10
2018-12-26T04:48:29.407Z,6.10
2018-12-26T04:49:33.991Z,6.00
2018-12-26T04:50:38.539Z,6.00
2018-12-26T04:51:43.098Z,6.00
2018-12-26T04:52:47.688Z,6.00
2018-12-26T04:53:52.270Z,6.00
2018-12-26T04:54:56.819Z,6.00
2018-12-26T04:56:01.384Z,6.10
2018-12-26T04:57:05.970Z,6.00
2018-12-26T04:58:10.508Z,6.00
2018-12-26T04:59:15.199Z,6.00
2018-12-26T05:00:19.792Z,6.00
2018-12-26T05:01:24.335Z,6.10
2018-12-26T05:02:29.042Z,6.00
2018-12-26T05:03:33.618Z,6.00
2018-12-26T05:04:38.266Z,6.00
2018-12-26T05:05:42.860Z,6.00
2018-12-26T05:06:47.388Z,6.00
2018-12-26T05:07:52.010Z,6.00
2018-12-26T05:08:56.594Z,6.00
2018-12-26T05:10:01.167Z,6.00
2018-12-26T05:11:05.774Z,6.00
2018-12-26T05:12:10.336Z,6.00
2018-12-26T05:13:14.891Z,6.00
2018-12-26T05:14:19.539Z,6.00
2018-12-26T05:15:24.094Z,6.00
2018-12-26T05:16:28.710Z,6.00
2018-12-26T05:17:33.291Z,6.00
2018-12-26T05:18:37.918Z,5.90
2018-12-26T05:19:42.614Z,5.90
2018-12-26T05:20:47.211Z,5.90
2018-12-26T05:21:51.876Z,5.90
2018-12-26T05:22:56.457Z,5.90
2018-12-26T05:24:01.031Z,5.90
2018-12-26T05:25:05.779Z,5.90
2018-12-26T05:26:10.331Z,5.90
2018-12-26T05:27:14.894Z,5.90
2018-12-26T05:28:19.496Z,5.80
2018-12-26T05:29:24.065Z,5.80
2018-12-26T05:30:29.633Z,5.80
2018-12-26T05:31:34.186Z,5.80
2018-12-26T05:32:38.737Z,5.80
2018-12-26T05:33:43.291Z,5.80
2018-12-26T05:34:47.848Z,5.80
2018-12-26T05:35:52.402Z,5.80
2018-12-26T05:36:56.942Z,5.80
2018-12-26T05:38:01.511Z,5.80
2018-12-26T05:39:07.601Z,5.80
2018-12-26T05:40:12.159Z,5.80
2018-12-26T05:41:16.716Z,5.80
2018-12-26T05:42:21.299Z,5.80
2018-12-26T05:43:25.910Z,5.80
2018-12-26T05:44:30.465Z,5.80
2018-12-26T05:45:34.996Z,5.80
2018-12-26T05:46:39.691Z,5.80
2018-12-26T05:47:44.379Z,5.80
2018-12-26T05:48:49.022Z,5.80
2018-12-26T05:49:53.666Z,5.80
2018-12-26T05:50:58.281Z,5.80
2018-12-26T05:52:02.840Z,5.80
2018-12-26T05:53:07.406Z,5.80
2018-12-26T05:54:12.942Z,5.80
2018-12-26T05:55:17.479Z,5.80
2018-12-26T05:56:22.041Z,5.80
2018-12-26T05:57:26.582Z,5.80
2018-12-26T05:58:31.137Z,5.80
2018-12-26T05:59:35.698Z,5.80
2018-12-26T06:00:40.299Z,5.80
2018-12-26T06:01:44.914Z,5.80
2018-12-26T06:02:49.454Z,5.80
2018-12-26T06:03:54.019Z,5.70
2018-12-26T06:04:58.661Z,5.80
2018-12-26T06:06:03.190Z,5.70
2018-12-26T06:07:07.723Z,5.80
2018-12-26T06:08:12.350Z,5.80
2018-12-26T06:09:17.895Z,5.80
2018-12-26T06:10:22.503Z,5.80
2018-12-26T06:11:27.086Z,5.80
2018-12-26T06:12:31.674Z,5.80
2018-12-26T06:13:36.218Z,5.80
2018-12-26T06:14:40.754Z,5.80
2018-12-26T06:15:45.376Z,5.80
2018-12-26T06:16:49.950Z,5.70
2018-12-26T06:17:54.511Z,5.70
2018-12-26T06:18:59.061Z,5.70
2018-12-26T06:20:03.723Z,5.70
2018-12-26T06:21:08.414Z,5.70
2018-12-26T06:22:13.008Z,5.70
2018-12-26T06:23:17.547Z,5.70
2018-12-26T06:24:22.157Z,5.70
2018-12-26T06:25:26.728Z,5.70
2018-12-26T06:26:31.367Z,5.70
2018-12-26T06:27:36.017Z,5.70
2018-12-26T06:28:40.571Z,5.70
2018-12-26T06:29:45.135Z,5.60
2018-12-26T06:30:49.716Z,5.60
2018-12-26T06:31:54.326Z,5.70
2018-12-26T06:32:58.877Z,5.60
2018-12-26T06:34:03.435Z,5.60
2018-12-26T06:35:07.969Z,5.60
2018-12-26T06:36:12.558Z,5.60
2018-12-26T06:37:17.126Z,5.60
2018-12-26T06:38:21.674Z,5.60
2018-12-26T06:39:26.222Z,5.60
2018-12-26T06:40:30.851Z,5.60
2018-12-26T06:41:35.450Z,5.60
2018-12-26T06:42:40.063Z,5.60
2018-12-26T06:43:44.650Z,5.60
2018-12-26T06:44:49.199Z,5.50
2018-12-26T06:45:53.743Z,5.50
2018-12-26T06:46:58.311Z,5.50
2018-12-26T06:48:02.887Z,5.50
2018-12-26T06:49:07.436Z,5.50
2018-12-26T06:50:11.978Z,5.50
2018-12-26T06:51:16.648Z,5.50
2018-12-26T06:52:21.215Z,5.50
2018-12-26T06:53:25.834Z,5.50
2018-12-26T06:54:30.409Z,5.50
2018-12-26T06:55:35.007Z,5.50
2018-12-26T06:56:39.592Z,5.50
2018-12-26T06:57:44.149Z,5.50
2018-12-26T06:58:48.951Z,5.50
2018-12-26T06:59:53.464Z,5.50
2018-12-26T07:00:58.063Z,5.50
2018-12-26T07:02:02.614Z,5.50
2018-12-26T07:03:07.191Z,5.50
2018-12-26T07:04:11.763Z,5.50
2018-12-26T07:05:16.306Z,5.50
2018-12-26T07:06:20.879Z,5.50
2018-12-26T07:07:25.422Z,5.50
2018-12-26T07:08:29.970Z,5.50
2018-12-26T07:09:34.540Z,5.50
2018-12-26T07:10:39.072Z,5.50
2018-12-26T07:11:43.610Z,5.50
2018-12-26T07:12:48.191Z,5.50
2018-12-26T07:13:52.869Z,5.50
2018-12-26T07:14:57.437Z,5.50
2018-12-26T07:16:01.980Z,5.50
2018-12-26T07:17:06.564Z,5.50
2018-12-26T07:18:11.120Z,5.40
2018-12-26T07:19:15.651Z,5.40
2018-12-26T07:20:20.248Z,5.40
2018-12-26T07:21:24.818Z,5.40
2018-12-26T07:22:29.399Z,5.40
2018-12-26T07:23:34.004Z,5.40
2018-12-26T07:24:38.563Z,5.50
2018-12-26T07:25:44.086Z,5.40
2018-12-26T07:26:48.755Z,5.40
2018-12-26T07:27:53.383Z,5.40
2018-12-26T07:28:57.923Z,5.40
2018-12-26T07:30:02.513Z,5.40
2018-12-26T07:31:07.105Z,5.40
2018-12-26T07:32:11.731Z,5.40
2018-12-26T07:33:16.267Z,5.40
2018-12-26T07:34:20.813Z,5.40
2018-12-26T07:35:25.359Z,5.30
2018-12-26T07:36:29.904Z,5.30
2018-12-26T07:37:34.497Z,5.40
2018-12-26T07:38:39.027Z,5.30
2018-12-26T07:39:43.684Z,5.30
2018-12-26T07:40:48.229Z,5.30
2018-12-26T07:41:52.796Z,5.30
2018-12-26T07:42:57.400Z,5.30
2018-12-26T07:44:01.943Z,5.30
2018-12-26T07:45:07.588Z,5.30
2018-12-26T07:46:12.167Z,5.30
2018-12-26T07:47:16.742Z,5.40
2018-12-26T07:48:21.346Z,5.40
2018-12-26T07:49:25.983Z,5.40
2018-12-26T07:50:30.563Z,5.40
2018-12-26T07:51:35.127Z,5.40
2018-12-26T07:52:39.811Z,5.50
2018-12-26T07:53:44.382Z,5.50
2018-12-26T07:54:48.938Z,5.60
2018-12-26T07:55:53.495Z,5.70
2018-12-26T07:56:58.041Z,5.70
2018-12-26T07:58:02.616Z,5.70
2018-12-26T07:59:07.246Z,5.70
2018-12-26T08:00:11.788Z,5.80
2018-12-26T08:01:16.343Z,5.80
2018-12-26T08:02:20.895Z,5.80
2018-12-26T08:03:25.450Z,5.70
2018-12-26T08:04:30.095Z,5.70
2018-12-26T08:05:34.668Z,5.70
2018-12-26T08:06:39.302Z,5.70
2018-12-26T08:07:43.895Z,5.70
2018-12-26T08:08:48.458Z,5.70
2018-12-26T08:09:53.033Z,5.60
2018-12-26T08:10:58.558Z,5.60
2018-12-26T08:12:03.258Z,5.60
2018-12-26T08:13:07.796Z,5.70
2018-12-26T08:14:12.496Z,5.70
2018-12-26T08:15:17.019Z,5.60
2018-12-26T08:16:21.559Z,5.60
2018-12-26T08:17:26.291Z,5.60
2018-12-26T08:18:30.831Z,5.60
2018-12-26T08:19:35.406Z,5.60
2018-12-26T08:20:39.936Z,5.60
2018-12-26T08:21:44.567Z,5.60
2018-12-26T08:22:50.166Z,5.70
2018-12-26T08:23:54.741Z,5.70
2018-12-26T08:24:59.310Z,5.70
2018-12-26T08:26:03.870Z,5.70
2018-12-26T08:27:08.398Z,5.70
2018-12-26T08:28:13.139Z,5.70
2018-12-26T08:29:17.730Z,5.70
2018-12-26T08:30:22.270Z,5.70
2018-12-26T08:31:26.812Z,5.70
2018-12-26T08:32:31.394Z,5.80
2018-12-26T08:33:36.056Z,5.80
2018-12-26T08:34:40.648Z,5.80
2018-12-26T08:35:45.192Z,5.80
2018-12-26T08:36:49.784Z,5.70
2018-12-26T08:37:54.367Z,5.70
2018-12-26T08:39:00.029Z,5.80
2018-12-26T08:40:05.090Z,5.80
2018-12-26T08:41:09.722Z,5.80
2018-12-26T08:42:14.267Z,5.80
2018-12-26T08:43:18.858Z,5.80
2018-12-26T08:44:23.424Z,5.80
2018-12-26T08:45:27.997Z,5.90
2018-12-26T08:46:32.565Z,5.90
2018-12-26T08:47:37.131Z,5.90
2018-12-26T08:48:41.678Z,5.80
2018-12-26T08:49:46.341Z,5.80
2018-12-26T08:50:51.004Z,5.80
2018-12-26T08:51:55.595Z,5.80
2018-12-26T08:53:00.167Z,5.80
2018-12-26T08:54:04.771Z,5.80
2018-12-26T08:55:09.419Z,5.70
2018-12-26T08:56:13.961Z,5.80
2018-12-26T08:57:18.561Z,5.80
2018-12-26T08:58:23.122Z,5.70
2018-12-26T08:59:27.726Z,5.80
2018-12-26T09:00:32.390Z,5.80
2018-12-26T09:01:36.983Z,5.80
2018-12-26T09:02:41.582Z,5.80
2018-12-26T09:03:46.123Z,5.80
2018-12-26T09:04:50.698Z,5.80
2018-12-26T09:05:55.298Z,5.80
2018-12-26T09:06:59.865Z,5.80
2018-12-26T09:08:04.454Z,5.80
2018-12-26T09:09:09.016Z,5.80
2018-12-26T09:10:13.619Z,5.80
2018-12-26T09:11:18.223Z,5.80
2018-12-26T09:12:22.756Z,5.80
2018-12-26T09:13:27.305Z,5.90
2018-12-26T09:14:31.919Z,5.90
2018-12-26T09:15:36.547Z,5.90
2018-12-26T09:16:41.126Z,5.90
2018-12-26T09:17:45.748Z,5.80
2018-12-26T09:18:50.491Z,5.80
2018-12-26T09:19:55.050Z,5.80
2018-12-26T09:20:59.671Z,5.80
2018-12-26T09:22:04.224Z,5.80
2018-12-26T09:23:09.564Z,5.80
2018-12-26T09:24:14.170Z,5.70
2018-12-26T09:25:18.791Z,5.70
2018-12-26T09:26:23.407Z,5.70
2018-12-26T09:27:28.088Z,5.70
2018-12-26T09:28:34.021Z,5.70
2018-12-26T09:29:38.583Z,5.60
2018-12-26T09:30:43.189Z,5.60
2018-12-26T09:31:47.770Z,5.60
2018-12-26T09:32:52.404Z,5.60
2018-12-26T09:33:56.966Z,5.60
2018-12-26T09:35:01.673Z,5.60
2018-12-26T09:36:06.283Z,5.60
2018-12-26T09:37:10.916Z,5.60
2018-12-26T09:38:15.462Z,5.60
2018-12-26T09:39:20.027Z,5.60
2018-12-26T09:40:24.662Z,5.60
2018-12-26T09:41:29.249Z,5.60
2018-12-26T09:42:33.834Z,5.60
2018-12-26T09:43:38.375Z,5.60
2018-12-26T09:44:43.099Z,5.60
2018-12-26T09:45:47.642Z,5.60
2018-12-26T09:46:52.275Z,5.60
2018-12-26T09:47:56.946Z,5.60
2018-12-26T09:49:01.516Z,5.60
2018-12-26T09:50:06.309Z,5.60
2018-12-26T09:51:10.850Z,5.60
2018-12-26T09:52:15.423Z,5.60
2018-12-26T09:53:19.982Z,5.60
2018-12-26T09:54:24.983Z,5.60
2018-12-26T09:55:29.616Z,5.60
2018-12-26T09:56:34.186Z,5.60
2018-12-26T09:57:38.774Z,5.60
2018-12-26T09:58:43.319Z,5.60
2018-12-26T09:59:47.888Z,5.50
2018-12-26T10:00:52.514Z,5.60
2018-12-26T10:01:57.065Z,5.60
2018-12-26T10:03:01.595Z,5.60
2018-12-26T10:04:06.259Z,5.70
2018-12-26T10:05:10.863Z,5.70
2018-12-26T10:06:15.402Z,5.70
2018-12-26T10:07:20.006Z,5.70
2018-12-26T10:08:24.555Z,5.70
2018-12-26T10:09:29.182Z,5.80
2018-12-26T10:10:33.774Z,5.80
2018-12-26T10:11:38.398Z,5.90
2018-12-26T10:12:42.978Z,5.90
2018-12-26T10:13:47.523Z,5.90
2018-12-26T10:14:52.161Z,5.90
2018-12-26T10:15:56.742Z,5.90
2018-12-26T10:17:01.301Z,5.90
2018-12-26T10:18:05.854Z,5.80
2018-12-26T10:19:10.452Z,5.80
2018-12-26T10:20:15.095Z,5.80
2018-12-26T10:21:19.698Z,5.70
2018-12-26T10:22:24.275Z,5.80
2018-12-26T10:23:28.924Z,5.70
2018-12-26T10:24:33.482Z,5.70
2018-12-26T10:25:38.092Z,5.70
2018-12-26T10:26:42.633Z,5.70
2018-12-26T10:27:47.415Z,5.60
2018-12-26T10:28:51.983Z,5.60
2018-12-26T10:29:56.627Z,5.50
2018-12-26T10:31:01.202Z,5.50
2018-12-26T10:32:05.838Z,5.50
2018-12-26T10:33:10.453Z,5.50
2018-12-26T10:34:15.011Z,5.40
2018-12-26T10:35:19.655Z,5.40
2018-12-26T10:36:24.324Z,5.40
2018-12-26T10:37:28.976Z,5.40
2018-12-26T10:38:33.614Z,5.40
2018-12-26T10:39:38.185Z,5.30
2018-12-26T10:40:42.747Z,5.30
2018-12-26T10:41:47.313Z,5.30
2018-12-26T10:42:52.015Z,5.30
2018-12-26T10:43:56.662Z,5.30
2018-12-26T10:45:01.295Z,5.30
2018-12-26T10:46:05.871Z,5.30
2018-12-26T10:47:10.479Z,5.30
2018-12-26T10:48:15.089Z,5.30
2018-12-26T10:49:19.661Z,5.30
2018-12-26T10:50:24.261Z,5.30
2018-12-26T10:51:28.842Z,5.20
2018-12-26T10:52:33.517Z,5.20
2018-12-26T10:53:38.187Z,5.30
2018-12-26T10:54:42.796Z,5.30
2018-12-26T10:55:47.400Z,5.30
2018-12-26T10:56:52.135Z,5.30
2018-12-26T10:57:56.739Z,5.30
2018-12-26T10:59:09.722Z,5.30
2018-12-26T11:00:09.775Z,5.30
2018-12-26T11:01:14.328Z,5.30
2018-12-26T11:02:18.966Z,5.30
2018-12-26T11:03:23.582Z,5.30
2018-12-26T11:04:28.131Z,5.30
2018-12-26T11:05:32.925Z,5.30
2018-12-26T11:06:37.478Z,5.30
2018-12-26T11:07:42.076Z,5.30
2018-12-26T11:08:46.800Z,5.30
2018-12-26T11:09:51.348Z,5.20
2018-12-26T11:10:55.882Z,5.20
2018-12-26T11:12:00.525Z,5.30
2018-12-26T11:13:05.105Z,5.30
2018-12-26T11:14:09.702Z,5.30
2018-12-26T11:15:14.258Z,5.30
2018-12-26T11:16:18.806Z,5.30
2018-12-26T11:17:23.618Z,5.30
2018-12-26T11:18:28.322Z,5.30
2018-12-26T11:19:32.958Z,5.30
2018-12-26T11:20:37.586Z,5.30
2018-12-26T11:21:42.166Z,5.30
2018-12-26T11:22:46.824Z,5.40
2018-12-26T11:23:51.368Z,5.30
2018-12-26T11:24:55.922Z,5.40
2018-12-26T11:26:00.536Z,5.30
2018-12-26T11:27:05.191Z,5.40
2018-12-26T11:28:09.830Z,5.40
2018-12-26T11:29:18.559Z,5.40
2018-12-26T11:30:20.734Z,5.40
2018-12-26T11:31:25.439Z,5.40
2018-12-26T11:32:30.054Z,5.40
2018-12-26T11:33:34.631Z,5.30
2018-12-26T11:34:39.242Z,5.40
2018-12-26T11:35:43.822Z,5.40
2018-12-26T11:36:48.430Z,5.30
2018-12-26T11:37:53.128Z,5.40
2018-12-26T11:38:57.805Z,5.30
2018-12-26T11:40:02.402Z,5.30
2018-12-26T11:41:06.951Z,5.30
2018-12-26T11:42:11.599Z,5.30
2018-12-26T11:43:16.280Z,5.30
2018-12-26T11:44:20.887Z,5.30
2018-12-26T11:45:25.426Z,5.30
2018-12-26T11:46:30.015Z,5.30
2018-12-26T11:47:34.579Z,5.30
2018-12-26T11:48:39.235Z,5.30
2018-12-26T11:49:43.836Z,5.30
2018-12-26T11:50:48.466Z,5.30
2018-12-26T11:51:53.091Z,5.30
2018-12-26T11:52:57.664Z,5.30
2018-12-26T11:54:02.306Z,5.30
2018-12-26T11:55:07.011Z,5.30
2018-12-26T11:56:11.562Z,5.30
2018-12-26T11:57:16.138Z,5.30
2018-12-26T11:58:20.745Z,5.30
2018-12-26T11:59:27.253Z,5.30
2018-12-26T12:00:31.555Z,5.30
2018-12-26T12:01:36.124Z,5.40
2018-12-26T12:02:40.738Z,5.40
2018-12-26T12:03:45.447Z,5.40
2018-12-26T12:04:50.071Z,5.30
2018-12-26T12:05:54.760Z,5.40
2018-12-26T12:06:59.313Z,5.40
2018-12-26T12:08:03.863Z,5.40
2018-12-26T12:09:08.585Z,5.40
2018-12-26T12:10:13.117Z,5.40
2018-12-26T12:11:17.723Z,5.40
2018-12-26T12:12:22.291Z,5.40
2018-12-26T12:13:26.867Z,5.40
2018-12-26T12:14:31.557Z,5.50
2018-12-26T12:15:36.166Z,5.50
2018-12-26T12:16:40.805Z,5.50
2018-12-26T12:17:45.427Z,5.50
2018-12-26T12:18:50.138Z,5.50
2018-12-26T12:19:54.869Z,5.50
2018-12-26T12:20:59.463Z,5.40
2018-12-26T12:22:04.140Z,5.40
2018-12-26T12:23:08.763Z,5.40
2018-12-26T12:24:13.491Z,5.40
2018-12-26T12:25:18.119Z,5.50
2018-12-26T12:26:22.720Z,5.40
2018-12-26T12:27:27.362Z,5.40
2018-12-26T12:28:32.093Z,5.40
2018-12-26T12:29:37.092Z,5.50
2018-12-26T12:30:42.194Z,5.50
2018-12-26T12:31:46.942Z,5.50
2018-12-26T12:32:51.493Z,5.50
2018-12-26T12:33:56.030Z,5.50
2018-12-26T12:35:01.135Z,5.50
2018-12-26T12:36:05.985Z,5.40
2018-12-26T12:37:11.214Z,5.50
2018-12-26T12:38:15.742Z,5.50
2018-12-26T12:39:20.472Z,5.50
2018-12-26T12:40:25.143Z,5.50
2018-12-26T12:41:29.818Z,5.50
2018-12-26T12:42:34.536Z,5.50
2018-12-26T12:43:39.178Z,5.60
2018-12-26T12:44:43.811Z,5.60
2018-12-26T12:45:48.848Z,5.60
2018-12-26T12:46:53.559Z,5.60
2018-12-26T12:47:58.249Z,5.60
2018-12-26T12:49:02.802Z,5.60
2018-12-26T12:50:07.596Z,5.60
2018-12-26T12:51:12.116Z,5.60
2018-12-26T12:52:16.751Z,5.50
2018-12-26T12:53:21.348Z,5.50
2018-12-26T12:54:25.945Z,5.50
2018-12-26T12:55:30.529Z,5.50
2018-12-26T12:56:35.167Z,5.50
2018-12-26T12:57:39.746Z,5.50
2018-12-26T12:58:44.373Z,5.50
2018-12-26T12:59:49.182Z,5.50
2018-12-26T13:00:53.755Z,5.60
2018-12-26T13:01:58.387Z,5.50
2018-12-26T13:03:03.013Z,5.50
2018-12-26T13:04:07.690Z,5.60
2018-12-26T13:05:12.255Z,5.60
2018-12-26T13:06:16.808Z,5.60
2018-12-26T13:07:21.430Z,5.60
2018-12-26T13:08:26.005Z,5.60
2018-12-26T13:09:30.564Z,5.60
2018-12-26T13:10:35.142Z,5.60
2018-12-26T13:11:39.720Z,5.60
2018-12-26T13:12:44.252Z,5.60
2018-12-26T13:13:51.892Z,5.70
2018-12-26T13:14:56.602Z,5.60
2018-12-26T13:16:01.825Z,5.60
2018-12-26T13:17:06.536Z,5.60
2018-12-26T13:18:11.108Z,5.60
2018-12-26T13:19:15.674Z,5.60
2018-12-26T13:20:20.276Z,5.70
2018-12-26T13:21:24.912Z,5.70
2018-12-26T13:22:29.539Z,5.70
2018-12-26T13:23:34.092Z,5.70
2018-12-26T13:24:38.687Z,5.80
2018-12-26T13:25:43.362Z,5.80
2018-12-26T13:26:47.933Z,5.70
2018-12-26T13:27:52.484Z,5.70
2018-12-26T13:28:57.060Z,5.70
2018-12-26T13:30:01.745Z,5.70
2018-12-26T13:31:06.453Z,5.70
2018-12-26T13:32:11.078Z,5.70
2018-12-26T13:33:15.690Z,5.70
2018-12-26T13:34:20.250Z,5.80
2018-12-26T13:35:24.896Z,5.80
2018-12-26T13:36:29.506Z,5.80
2018-12-26T13:37:43.935Z,5.80
2018-12-26T13:38:48.543Z,5.80
2018-12-26T13:39:53.159Z,5.80
2018-12-26T13:40:57.693Z,5.80
2018-12-26T13:42:02.266Z,5.80
2018-12-26T13:43:06.827Z,5.80
2018-12-26T13:44:11.389Z,5.80
2018-12-26T13:45:15.959Z,5.80
2018-12-26T13:46:20.559Z,5.80
2018-12-26T13:47:25.137Z,5.80
2018-12-26T13:48:29.665Z,5.80
2018-12-26T13:49:34.207Z,5.80
2018-12-26T13:50:38.747Z,5.80
2018-12-26T13:51:43.463Z,5.80
2018-12-26T13:52:48.065Z,5.80
2018-12-26T13:53:52.617Z,5.80
2018-12-26T13:54:57.150Z,5.80
2018-12-26T13:56:01.720Z,5.80
2018-12-26T13:57:06.513Z,5.80
2018-12-26T13:58:11.082Z,5.90
2018-12-26T13:59:15.662Z,5.90
2018-12-26T14:00:21.186Z,5.90
2018-12-26T14:01:25.719Z,5.90
2018-12-26T14:02:30.280Z,5.90
2018-12-26T14:03:34.843Z,5.90
2018-12-26T14:04:39.396Z,5.90
2018-12-26T14:05:43.928Z,5.80
2018-12-26T14:06:48.562Z,5.80
2018-12-26T14:07:53.161Z,5.80
2018-12-26T14:08:57.723Z,5.80
2018-12-26T14:10:02.268Z,5.80
2018-12-26T14:11:06.970Z,5.80
2018-12-26T14:12:11.505Z,5.80
2018-12-26T14:13:16.093Z,5.90
2018-12-26T14:14:20.646Z,5.90
2018-12-26T14:15:25.276Z,5.90
2018-12-26T14:16:29.911Z,5.80
2018-12-26T14:17:34.480Z,5.80
2018-12-26T14:18:39.057Z,5.80
2018-12-26T14:19:43.614Z,5.80
2018-12-26T14:20:48.174Z,5.90